sensor_id;sensor_type;location;lat;lon;timestamp;pressure;altitude;pressure_sealevel;temperature;humidity
38786;BME280;24535;45.508;12.252;2024-03-02T00:00:36;100741.06;;;15.42;67.67
38786;BME280;24535;45.508;12.252;2024-03-02T00:03:02;100741.63;;;15.45;67.21
38786;BME280;24535;45.508;12.252;2024-03-02T00:05:27;100743.31;;;15.46;67.25
38786;BME280;24535;45.508;12.252;2024-03-02T00:07:54;100740.66;;;15.46;67.59
38786;BME280;24535;45.508;12.252;2024-03-02T00:10:27;100747.63;;;15.47;67.56
38786;BME280;24535;45.508;12.252;2024-03-02T00:12:57;100744.16;;;15.47;67.40
38786;BME280;24535;45.508;12.252;2024-03-02T00:18:04;100745.13;;;15.46;67.15
38786;BME280;24535;45.508;12.252;2024-03-02T00:20:30;100738.97;;;15.45;66.92
38786;BME280;24535;45.508;12.252;2024-03-02T00:23:09;100742.34;;;15.47;67.29
38786;BME280;24535;45.508;12.252;2024-03-02T00:25:47;100743.19;;;15.48;67.24
38786;BME280;24535;45.508;12.252;2024-03-02T00:28:20;100743.19;;;15.48;67.24
38786;BME280;24535;45.508;12.252;2024-03-02T00:30:54;100736.91;;;15.49;67.01
38786;BME280;24535;45.508;12.252;2024-03-02T00:33:21;100743.06;;;15.49;67.02
38786;BME280;24535;45.508;12.252;2024-03-02T00:35:48;100741.09;;;15.51;66.97
38786;BME280;24535;45.508;12.252;2024-03-02T00:38:15;100742.06;;;15.50;67.05
38786;BME280;24535;45.508;12.252;2024-03-02T00:40:44;100737.59;;;15.51;66.91
38786;BME280;24535;45.508;12.252;2024-03-02T00:46:13;100741.09;;;15.51;66.88
38786;BME280;24535;45.508;12.252;2024-03-02T00:48:41;100743.06;;;15.49;66.72
38786;BME280;24535;45.508;12.252;2024-03-02T00:51:11;100748.22;;;15.51;66.65
38786;BME280;24535;45.508;12.252;2024-03-02T00:53:37;100748.22;;;15.51;66.85
38786;BME280;24535;45.508;12.252;2024-03-02T00:56:02;100742.22;;;15.49;67.03
38786;BME280;24535;45.508;12.252;2024-03-02T00:58:28;100743.06;;;15.49;66.50
38786;BME280;24535;45.508;12.252;2024-03-02T01:00:53;100738.72;;;15.48;66.43
38786;BME280;24535;45.508;12.252;2024-03-02T01:03:25;100744.88;;;15.49;66.60
38786;BME280;24535;45.508;12.252;2024-03-02T01:05:57;100737.16;;;15.46;66.45
38786;BME280;24535;45.508;12.252;2024-03-02T01:08:25;100745.13;;;15.46;66.63
38786;BME280;24535;45.508;12.252;2024-03-02T01:11:21;100748.63;;;15.46;66.49
38786;BME280;24535;45.508;12.252;2024-03-02T01:13:47;100761.78;;;15.48;66.56
38786;BME280;24535;45.508;12.252;2024-03-02T01:16:13;100761.22;;;15.44;65.87
38786;BME280;24535;45.508;12.252;2024-03-02T01:18:39;100750.84;;;15.41;66.31
38786;BME280;24535;45.508;12.252;2024-03-02T01:21:04;100764.13;;;15.41;66.52
38786;BME280;24535;45.508;12.252;2024-03-02T01:23:30;100763.13;;;15.42;66.41
38786;BME280;24535;45.508;12.252;2024-03-02T01:25:58;100763.13;;;15.42;66.35
38786;BME280;24535;45.508;12.252;2024-03-02T01:28:33;100767.34;;;15.45;66.49
38786;BME280;24535;45.508;12.252;2024-03-02T01:31:02;100768.03;;;15.47;65.77
38786;BME280;24535;45.508;12.252;2024-03-02T01:33:27;100762.88;;;15.45;66.07
38786;BME280;24535;45.508;12.252;2024-03-02T01:35:53;100760.38;;;15.44;66.09
38786;BME280;24535;45.508;12.252;2024-03-02T01:38:18;100753.25;;;15.44;66.31
38786;BME280;24535;45.508;12.252;2024-03-02T01:40:44;100752.41;;;15.44;66.45
38786;BME280;24535;45.508;12.252;2024-03-02T01:43:17;100748.63;;;15.46;66.12
38786;BME280;24535;45.508;12.252;2024-03-02T01:45:48;100747.09;;;15.44;66.46
38786;BME280;24535;45.508;12.252;2024-03-02T01:48:14;100745.13;;;15.46;65.95
38786;BME280;24535;45.508;12.252;2024-03-02T01:50:42;100743.47;;;15.45;66.32
38786;BME280;24535;45.508;12.252;2024-03-02T01:53:15;100755.59;;;15.47;66.23
38786;BME280;24535;45.508;12.252;2024-03-02T01:55:41;100759.25;;;15.46;65.82
38786;BME280;24535;45.508;12.252;2024-03-02T01:58:07;100758.41;;;15.46;65.42
38786;BME280;24535;45.508;12.252;2024-03-02T02:00:32;100749.75;;;15.44;65.85
38786;BME280;24535;45.508;12.252;2024-03-02T02:02:58;100754.06;;;15.45;65.92
38786;BME280;24535;45.508;12.252;2024-03-02T02:05:23;100746.22;;;15.43;66.08
38786;BME280;24535;45.508;12.252;2024-03-02T02:07:49;100755.06;;;15.44;65.53
38786;BME280;24535;45.508;12.252;2024-03-02T02:10:14;100756.84;;;15.43;65.71
38786;BME280;24535;45.508;12.252;2024-03-02T02:12:40;100752.25;;;15.45;66.26
38786;BME280;24535;45.508;12.252;2024-03-02T02:15:30;100762.88;;;15.45;66.25
38786;BME280;24535;45.508;12.252;2024-03-02T02:17:57;100762.88;;;15.45;65.49
38786;BME280;24535;45.508;12.252;2024-03-02T02:20:26;100757.56;;;15.45;65.06
38786;BME280;24535;45.508;12.252;2024-03-02T02:23:02;100755.91;;;15.44;65.87
38786;BME280;24535;45.508;12.252;2024-03-02T02:25:31;100762.03;;;15.45;65.98
38786;BME280;24535;45.508;12.252;2024-03-02T02:27:57;100762.16;;;15.43;65.84
38786;BME280;24535;45.508;12.252;2024-03-02T02:30:31;100760.75;;;15.39;65.49
38786;BME280;24535;45.508;12.252;2024-03-02T02:32:57;100760.63;;;15.41;65.69
38786;BME280;24535;45.508;12.252;2024-03-02T02:35:23;100762.44;;;15.40;65.56
38786;BME280;24535;45.508;12.252;2024-03-02T02:37:52;100760.63;;;15.41;65.90
38786;BME280;24535;45.508;12.252;2024-03-02T02:40:18;100758.09;;;15.39;65.27
38786;BME280;24535;45.508;12.252;2024-03-02T02:42:44;100752.78;;;15.39;65.37
38786;BME280;24535;45.508;12.252;2024-03-02T02:45:11;100748.59;;;15.37;65.94
38786;BME280;24535;45.508;12.252;2024-03-02T02:47:38;100747.88;;;15.34;65.31
38786;BME280;24535;45.508;12.252;2024-03-02T02:55:41;100742.72;;;15.33;64.86
38786;BME280;24535;45.508;12.252;2024-03-02T02:58:11;100737.66;;;15.30;65.66
38786;BME280;24535;45.508;12.252;2024-03-02T03:00:37;100745.38;;;15.33;65.65
38786;BME280;24535;45.508;12.252;2024-03-02T03:03:03;100741.88;;;15.32;64.78
38786;BME280;24535;45.508;12.252;2024-03-02T03:05:28;100743.69;;;15.32;65.60
38786;BME280;24535;45.508;12.252;2024-03-02T03:07:54;100744.63;;;15.31;65.15
38786;BME280;24535;45.508;12.252;2024-03-02T03:10:19;100744.63;;;15.31;65.68
38786;BME280;24535;45.508;12.252;2024-03-02T03:12:47;100745.50;;;15.31;65.29
38786;BME280;24535;45.508;12.252;2024-03-02T03:15:13;100743.69;;;15.32;65.26
38786;BME280;24535;45.508;12.252;2024-03-02T03:17:42;100730.53;;;15.30;65.12
38786;BME280;24535;45.508;12.252;2024-03-02T03:20:08;100738.50;;;15.30;65.29
38786;BME280;24535;45.508;12.252;2024-03-02T03:22:37;100743.69;;;15.32;65.06
38786;BME280;24535;45.508;12.252;2024-03-02T03:25:06;100745.63;;;15.30;65.52
38786;BME280;24535;45.508;12.252;2024-03-02T03:27:33;100749.94;;;15.31;64.71
38786;BME280;24535;45.508;12.252;2024-03-02T03:29:58;100744.53;;;15.32;65.26
38786;BME280;24535;45.508;12.252;2024-03-02T03:32:24;100750.94;;;15.30;65.43
38786;BME280;24535;45.508;12.252;2024-03-02T03:34:50;100747.19;;;15.32;64.95
38786;BME280;24535;45.508;12.252;2024-03-02T03:37:15;100750.66;;;15.33;65.24
38786;BME280;24535;45.508;12.252;2024-03-02T03:39:41;100745.50;;;15.31;65.04
38786;BME280;24535;45.508;12.252;2024-03-02T03:42:09;100747.19;;;15.32;65.06
38786;BME280;24535;45.508;12.252;2024-03-02T03:44:38;100744.63;;;15.31;65.32
38786;BME280;24535;45.508;12.252;2024-03-02T03:47:07;100745.22;;;15.34;65.01
38786;BME280;24535;45.508;12.252;2024-03-02T03:49:35;100753.75;;;15.38;65.40
38786;BME280;24535;45.508;12.252;2024-03-02T03:52:10;100753.06;;;15.36;65.26
38786;BME280;24535;45.508;12.252;2024-03-02T03:54:47;100747.03;;;15.34;65.04
38786;BME280;24535;45.508;12.252;2024-03-02T03:57:12;100748.03;;;15.33;64.85
38786;BME280;24535;45.508;12.252;2024-03-02T03:59:38;100752.34;;;15.34;65.24
38786;BME280;24535;45.508;12.252;2024-03-02T04:02:03;100751.66;;;15.32;65.43
38786;BME280;24535;45.508;12.252;2024-03-02T04:04:29;100749.00;;;15.32;65.10
38786;BME280;24535;45.508;12.252;2024-03-02T04:06:55;100754.41;;;15.30;65.18
38786;BME280;24535;45.508;12.252;2024-03-02T04:09:23;100761.97;;;15.35;65.02
38786;BME280;24535;45.508;12.252;2024-03-02T04:11:49;100752.75;;;15.29;64.93
38786;BME280;24535;45.508;12.252;2024-03-02T04:14:20;100755.97;;;15.33;64.87
38786;BME280;24535;45.508;12.252;2024-03-02T04:16:45;100753.47;;;15.31;65.21
38786;BME280;24535;45.508;12.252;2024-03-02T04:19:11;100758.78;;;15.31;65.35
38786;BME280;24535;45.508;12.252;2024-03-02T04:21:37;100752.50;;;15.32;64.81
38786;BME280;24535;45.508;12.252;2024-03-02T04:24:02;100755.97;;;15.33;65.03
38786;BME280;24535;45.508;12.252;2024-03-02T04:26:28;100760.44;;;15.32;65.48
38786;BME280;24535;45.508;12.252;2024-03-02T04:28:54;100767.44;;;15.33;65.28
38786;BME280;24535;45.508;12.252;2024-03-02T04:31:20;100757.91;;;15.31;65.22
38786;BME280;24535;45.508;12.252;2024-03-02T04:33:45;100760.84;;;15.28;65.02
38786;BME280;24535;45.508;12.252;2024-03-02T04:36:11;100758.19;;;15.28;65.31
38786;BME280;24535;45.508;12.252;2024-03-02T04:38:39;100769.41;;;15.31;65.18
38786;BME280;24535;45.508;12.252;2024-03-02T04:41:06;100773.00;;;15.30;65.49
38786;BME280;24535;45.508;12.252;2024-03-02T04:43:35;100764.34;;;15.28;65.15
38786;BME280;24535;45.508;12.252;2024-03-02T04:46:05;100772.31;;;15.28;65.19
38786;BME280;24535;45.508;12.252;2024-03-02T04:48:31;100770.50;;;15.29;64.92
38786;BME280;24535;45.508;12.252;2024-03-02T04:50:59;100768.09;;;15.26;65.04
38786;BME280;24535;45.508;12.252;2024-03-02T04:56:53;100778.97;;;15.23;65.11
38786;BME280;24535;45.508;12.252;2024-03-02T04:59:19;100779.50;;;15.17;65.73
38786;BME280;24535;45.508;12.252;2024-03-02T05:07:53;100784.41;;;15.21;65.59
38786;BME280;24535;45.508;12.252;2024-03-02T05:10:20;100786.94;;;15.23;65.06
38786;BME280;24535;45.508;12.252;2024-03-02T05:12:45;100790.56;;;15.22;65.07
38786;BME280;24535;45.508;12.252;2024-03-02T05:15:15;100790.97;;;15.17;65.29
38786;BME280;24535;45.508;12.252;2024-03-02T05:17:41;100788.44;;;15.16;65.62
38786;BME280;24535;45.508;12.252;2024-03-02T05:20:09;100794.00;;;15.13;65.28
38786;BME280;24535;45.508;12.252;2024-03-02T05:22:39;100801.00;;;15.14;65.98
38786;BME280;24535;45.508;12.252;2024-03-02T05:25:05;100800.72;;;15.17;65.65
38786;BME280;24535;45.508;12.252;2024-03-02T05:27:32;100802.56;;;15.16;66.07
38786;BME280;24535;45.508;12.252;2024-03-02T05:30:01;100805.22;;;15.16;65.74
38786;BME280;24535;45.508;12.252;2024-03-02T05:32:26;100801.00;;;15.14;65.90
38786;BME280;24535;45.508;12.252;2024-03-02T05:34:52;100797.34;;;15.15;65.88
38786;BME280;24535;45.508;12.252;2024-03-02T05:37:17;100803.25;;;15.18;65.68
38786;BME280;24535;45.508;12.252;2024-03-02T05:39:43;100807.59;;;15.19;66.24
38786;BME280;24535;45.508;12.252;2024-03-02T05:42:09;100813.88;;;15.18;65.09
38786;BME280;24535;45.508;12.252;2024-03-02T05:44:35;100807.72;;;15.18;65.86
38786;BME280;24535;45.508;12.252;2024-03-02T05:47:01;100808.56;;;15.18;65.25
38786;BME280;24535;45.508;12.252;2024-03-02T05:49:35;100818.78;;;15.23;65.57
38786;BME280;24535;45.508;12.252;2024-03-02T05:52:01;100808.69;;;15.17;65.58
38786;BME280;24535;45.508;12.252;2024-03-02T05:54:26;100813.75;;;15.20;65.93
38786;BME280;24535;45.508;12.252;2024-03-02T05:56:51;100825.19;;;15.20;65.44
38786;BME280;24535;45.508;12.252;2024-03-02T05:59:17;100817.25;;;15.20;65.81
38786;BME280;24535;45.508;12.252;2024-03-02T06:01:43;100831.22;;;15.22;65.76
38786;BME280;24535;45.508;12.252;2024-03-02T06:04:10;100826.19;;;15.19;65.57
38786;BME280;24535;45.508;12.252;2024-03-02T06:06:36;100831.34;;;15.21;65.77
38786;BME280;24535;45.508;12.252;2024-03-02T06:09:02;100830.25;;;15.23;65.65
38786;BME280;24535;45.508;12.252;2024-03-02T06:11:42;100835.56;;;15.23;65.75
38786;BME280;24535;45.508;12.252;2024-03-02T06:14:10;100836.25;;;15.25;65.76
38786;BME280;24535;45.508;12.252;2024-03-02T06:16:36;100843.38;;;15.25;65.70
38786;BME280;24535;45.508;12.252;2024-03-02T06:19:01;100836.25;;;15.25;65.93
38786;BME280;24535;45.508;12.252;2024-03-02T06:21:31;100847.72;;;15.26;65.42
38786;BME280;24535;45.508;12.252;2024-03-02T06:23:56;100839.75;;;15.26;65.65
38786;BME280;24535;45.508;12.252;2024-03-02T06:26:25;100852.78;;;15.29;65.50
38786;BME280;24535;45.508;12.252;2024-03-02T06:28:50;100842.81;;;15.21;65.67
38786;BME280;24535;45.508;12.252;2024-03-02T06:31:17;100842.81;;;15.21;65.45
38786;BME280;24535;45.508;12.252;2024-03-02T06:33:42;100853.28;;;15.23;65.96
38786;BME280;24535;45.508;12.252;2024-03-02T06:36:07;100858.34;;;15.26;65.66
38786;BME280;24535;45.508;12.252;2024-03-02T06:38:40;100846.28;;;15.22;65.47
38786;BME280;24535;45.508;12.252;2024-03-02T06:41:09;100857.06;;;15.20;65.63
38786;BME280;24535;45.508;12.252;2024-03-02T06:43:35;100856.06;;;15.21;65.43
38786;BME280;24535;45.508;12.252;2024-03-02T06:46:00;100855.09;;;15.22;65.59
38786;BME280;24535;45.508;12.252;2024-03-02T06:48:26;100866.19;;;15.27;65.84
38786;BME280;24535;45.508;12.252;2024-03-02T06:50:55;100855.81;;;15.24;65.88
38786;BME280;24535;45.508;12.252;2024-03-02T06:53:21;100865.31;;;15.27;66.06
38786;BME280;24535;45.508;12.252;2024-03-02T06:59:08;100868.84;;;15.27;65.97
38786;BME280;24535;45.508;12.252;2024-03-02T07:01:34;100874.97;;;15.28;66.19
38786;BME280;24535;45.508;12.252;2024-03-02T07:03:59;100882.94;;;15.28;65.64
38786;BME280;24535;45.508;12.252;2024-03-02T07:06:25;100882.13;;;15.27;65.56
38786;BME280;24535;45.508;12.252;2024-03-02T07:08:50;100881.25;;;15.27;65.45
38786;BME280;24535;45.508;12.252;2024-03-02T07:11:37;100887.28;;;15.29;65.87
38786;BME280;24535;45.508;12.252;2024-03-02T07:14:03;100886.69;;;15.25;65.50
38786;BME280;24535;45.508;12.252;2024-03-02T07:16:29;100891.03;;;15.26;65.92
38786;BME280;24535;45.508;12.252;2024-03-02T07:18:58;100887.66;;;15.24;66.35
38786;BME280;24535;45.508;12.252;2024-03-02T07:21:30;100892.84;;;15.26;65.71
38786;BME280;24535;45.508;12.252;2024-03-02T07:23:55;100894.78;;;15.24;65.68
38786;BME280;24535;45.508;12.252;2024-03-02T07:26:21;100891.56;;;15.20;65.82
38786;BME280;24535;45.508;12.252;2024-03-02T07:28:47;100898.41;;;15.23;65.93
38786;BME280;24535;45.508;12.252;2024-03-02T07:31:14;100899.63;;;15.19;65.81
38786;BME280;24535;45.508;12.252;2024-03-02T07:33:46;100901.44;;;15.18;65.81
38786;BME280;24535;45.508;12.252;2024-03-02T07:36:21;100897.09;;;15.17;66.27
38786;BME280;24535;45.508;12.252;2024-03-02T07:41:35;100904.94;;;15.19;66.18
38786;BME280;24535;45.508;12.252;2024-03-02T07:44:09;100914.13;;;15.15;66.50
38786;BME280;24535;45.508;12.252;2024-03-02T07:47:20;100914.00;;;15.16;66.58
38786;BME280;24535;45.508;12.252;2024-03-02T07:55:59;100918.72;;;15.13;66.30
38786;BME280;24535;45.508;12.252;2024-03-02T07:58:41;100921.88;;;15.06;66.14
38786;BME280;24535;45.508;12.252;2024-03-02T08:01:19;100931.66;;;15.06;66.36
38786;BME280;24535;45.508;12.252;2024-03-02T08:03:48;100932.63;;;15.05;66.65
38786;BME280;24535;45.508;12.252;2024-03-02T08:06:20;100934.69;;;15.01;66.30
38786;BME280;24535;45.508;12.252;2024-03-02T08:09:04;100936.34;;;15.02;67.06
38786;BME280;24535;45.508;12.252;2024-03-02T08:11:34;100928.78;;;14.98;66.82
38786;BME280;24535;45.508;12.252;2024-03-02T08:14:05;100940.63;;;14.94;66.88
38786;BME280;24535;45.508;12.252;2024-03-02T08:16:34;100940.75;;;14.92;66.71
38786;BME280;24535;45.508;12.252;2024-03-02T08:19:00;100950.84;;;14.98;67.67
38786;BME280;24535;45.508;12.252;2024-03-02T08:21:25;100949.91;;;14.99;67.23
38786;BME280;24535;45.508;12.252;2024-03-02T08:23:51;100955.31;;;14.98;66.80
38786;BME280;24535;45.508;12.252;2024-03-02T08:26:16;100955.44;;;14.96;66.91
38786;BME280;24535;45.508;12.252;2024-03-02T08:28:42;100948.47;;;14.95;67.31
38786;BME280;24535;45.508;12.252;2024-03-02T08:31:08;100955.44;;;14.96;66.70
38786;BME280;24535;45.508;12.252;2024-03-02T08:33:34;100950.25;;;14.95;67.36
38786;BME280;24535;45.508;12.252;2024-03-02T08:36:00;100955.56;;;14.95;67.20
38786;BME280;24535;45.508;12.252;2024-03-02T08:38:26;100963.41;;;14.96;67.15
38786;BME280;24535;45.508;12.252;2024-03-02T08:40:51;100968.97;;;14.93;67.33
38786;BME280;24535;45.508;12.252;2024-03-02T08:43:17;100965.00;;;14.88;67.30
38786;BME280;24535;45.508;12.252;2024-03-02T08:45:43;100967.53;;;14.89;67.33
38786;BME280;24535;45.508;12.252;2024-03-02T08:48:09;100966.44;;;14.92;67.33
38786;BME280;24535;45.508;12.252;2024-03-02T08:50:35;100970.53;;;14.96;67.62
38786;BME280;24535;45.508;12.252;2024-03-02T08:53:24;100971.22;;;14.98;67.53
38786;BME280;24535;45.508;12.252;2024-03-02T08:55:49;100976.16;;;15.02;67.32
38786;BME280;24535;45.508;12.252;2024-03-02T08:58:18;100968.94;;;15.04;67.34
38786;BME280;24535;45.508;12.252;2024-03-02T09:00:44;100974.84;;;15.08;67.03
38786;BME280;24535;45.508;12.252;2024-03-02T09:03:09;100980.16;;;15.08;66.81
38786;BME280;24535;45.508;12.252;2024-03-02T09:05:43;100979.16;;;15.09;67.63
38786;BME280;24535;45.508;12.252;2024-03-02T09:08:09;100974.69;;;15.09;66.85
38786;BME280;24535;45.508;12.252;2024-03-02T09:10:37;100976.38;;;15.11;67.28
38786;BME280;24535;45.508;12.252;2024-03-02T09:13:04;100973.63;;;15.12;67.28
38786;BME280;24535;45.508;12.252;2024-03-02T09:15:30;100974.22;;;15.16;66.76
38786;BME280;24535;45.508;12.252;2024-03-02T09:17:55;100974.22;;;15.16;67.15
38786;BME280;24535;45.508;12.252;2024-03-02T09:20:23;100975.75;;;15.18;67.22
38786;BME280;24535;45.508;12.252;2024-03-02T09:22:48;100982.38;;;15.24;66.93
38786;BME280;24535;45.508;12.252;2024-03-02T09:25:14;100981.41;;;15.25;67.33
38786;BME280;24535;45.508;12.252;2024-03-02T09:27:41;100985.72;;;15.26;66.91
38786;BME280;24535;45.508;12.252;2024-03-02T09:32:47;100982.00;;;15.28;66.86
38786;BME280;24535;45.508;12.252;2024-03-02T09:35:13;100978.38;;;15.29;66.52
38786;BME280;24535;45.508;12.252;2024-03-02T09:37:38;100974.88;;;15.29;67.13
38786;BME280;24535;45.508;12.252;2024-03-02T09:40:04;100982.59;;;15.32;67.03
38786;BME280;24535;45.508;12.252;2024-03-02T09:42:31;100980.78;;;15.32;67.00
38786;BME280;24535;45.508;12.252;2024-03-02T09:44:57;100977.28;;;15.32;66.97
38786;BME280;24535;45.508;12.252;2024-03-02T09:47:23;100983.28;;;15.34;67.48
38786;BME280;24535;45.508;12.252;2024-03-02T09:49:49;100973.66;;;15.33;67.35
38786;BME280;24535;45.508;12.252;2024-03-02T09:52:14;100977.00;;;15.35;67.10
38786;BME280;24535;45.508;12.252;2024-03-02T09:54:41;100973.66;;;15.33;67.22
38786;BME280;24535;45.508;12.252;2024-03-02T09:57:06;100974.34;;;15.35;67.23
38786;BME280;24535;45.508;12.252;2024-03-02T09:59:32;100976.06;;;15.36;67.49
38786;BME280;24535;45.508;12.252;2024-03-02T10:02:02;100978.56;;;15.38;66.77
38786;BME280;24535;45.508;12.252;2024-03-02T10:04:29;100981.94;;;15.40;67.26
38786;BME280;24535;45.508;12.252;2024-03-02T10:07:16;100980.13;;;15.40;67.46
38786;BME280;24535;45.508;12.252;2024-03-02T10:09:44;100983.88;;;15.38;67.04
38786;BME280;24535;45.508;12.252;2024-03-02T10:12:11;100985.84;;;15.36;67.61
38786;BME280;24535;45.508;12.252;2024-03-02T10:14:37;100985.94;;;15.34;67.77
38786;BME280;24535;45.508;12.252;2024-03-02T10:17:05;100979.94;;;15.32;67.63
38786;BME280;24535;45.508;12.252;2024-03-02T10:19:31;100989.72;;;15.31;67.38
38786;BME280;24535;45.508;12.252;2024-03-02T10:22:08;100986.19;;;15.31;67.74
38786;BME280;24535;45.508;12.252;2024-03-02T10:24:42;100995.13;;;15.30;67.73
38786;BME280;24535;45.508;12.252;2024-03-02T10:27:17;100986.19;;;15.31;67.93
38786;BME280;24535;45.508;12.252;2024-03-02T10:29:46;100980.19;;;15.29;67.75
38786;BME280;24535;45.508;12.252;2024-03-02T10:32:11;100984.66;;;15.28;67.63
38786;BME280;24535;45.508;12.252;2024-03-02T10:34:39;100983.06;;;15.26;67.87
38786;BME280;24535;45.508;12.252;2024-03-02T10:37:05;100982.00;;;15.28;68.23
38786;BME280;24535;45.508;12.252;2024-03-02T10:39:33;100984.50;;;15.30;68.00
38786;BME280;24535;45.508;12.252;2024-03-02T10:42:02;100988.00;;;15.30;68.03
38786;BME280;24535;45.508;12.252;2024-03-02T10:44:29;100991.13;;;15.36;67.99
38786;BME280;24535;45.508;12.252;2024-03-02T10:46:55;100981.75;;;15.31;68.24
38786;BME280;24535;45.508;12.252;2024-03-02T10:49:23;100986.91;;;15.33;67.91
38786;BME280;24535;45.508;12.252;2024-03-02T10:51:52;100988.22;;;15.39;68.11
38786;BME280;24535;45.508;12.252;2024-03-02T10:54:18;100997.00;;;15.39;67.99
38786;BME280;24535;45.508;12.252;2024-03-02T10:56:58;100986.78;;;15.34;68.19
38786;BME280;24535;45.508;12.252;2024-03-02T10:59:35;100979.53;;;15.37;68.14
38786;BME280;24535;45.508;12.252;2024-03-02T11:02:06;100990.16;;;15.37;68.25
38786;BME280;24535;45.508;12.252;2024-03-02T11:04:40;100992.44;;;15.41;68.19
38786;BME280;24535;45.508;12.252;2024-03-02T11:07:08;100986.97;;;15.43;68.31
38786;BME280;24535;45.508;12.252;2024-03-02T11:09:41;100989.53;;;15.44;68.05
38786;BME280;24535;45.508;12.252;2024-03-02T11:12:18;100983.63;;;15.41;68.34
38786;BME280;24535;45.508;12.252;2024-03-02T11:14:48;100985.44;;;15.40;68.28
38786;BME280;24535;45.508;12.252;2024-03-02T11:17:17;100973.13;;;15.39;68.17
38786;BME280;24535;45.508;12.252;2024-03-02T11:19:44;100979.16;;;15.41;68.11
38786;BME280;24535;45.508;12.252;2024-03-02T11:22:11;100982.78;;;15.40;68.31
38786;BME280;24535;45.508;12.252;2024-03-02T11:33:07;100977.53;;;15.29;68.76
38786;BME280;24535;45.508;12.252;2024-03-02T11:35:36;100955.69;;;15.25;68.73
38786;BME280;24535;45.508;12.252;2024-03-02T11:38:02;100963.53;;;15.27;68.90
38786;BME280;24535;45.508;12.252;2024-03-02T11:40:28;100961.59;;;15.29;68.75
38786;BME280;24535;45.508;12.252;2024-03-02T11:42:59;100962.28;;;15.31;68.96
38786;BME280;24535;45.508;12.252;2024-03-02T11:45:29;100958.69;;;15.32;68.79
38786;BME280;24535;45.508;12.252;2024-03-02T11:47:59;100955.75;;;15.35;69.28
38786;BME280;24535;45.508;12.252;2024-03-02T11:50:34;100953.69;;;15.39;69.22
38786;BME280;24535;45.508;12.252;2024-03-02T11:53:00;100955.66;;;15.37;68.80
38786;BME280;24535;45.508;12.252;2024-03-02T11:55:34;100944.78;;;15.40;69.18
38786;BME280;24535;45.508;12.252;2024-03-02T11:58:03;100937.75;;;15.39;68.56
38786;BME280;24535;45.508;12.252;2024-03-02T12:00:32;100939.19;;;15.43;69.05
38786;BME280;24535;45.508;12.252;2024-03-02T12:03:04;100937.38;;;15.43;69.42
38786;BME280;24535;45.508;12.252;2024-03-02T12:05:30;100938.09;;;15.45;69.46
38786;BME280;24535;45.508;12.252;2024-03-02T12:08:03;100934.47;;;15.46;69.46
38786;BME280;24535;45.508;12.252;2024-03-02T12:10:38;100932.53;;;15.48;69.04
38786;BME280;24535;45.508;12.252;2024-03-02T12:13:05;100939.97;;;15.54;69.23
38786;BME280;24535;45.508;12.252;2024-03-02T12:15:47;100939.97;;;15.54;69.07
38786;BME280;24535;45.508;12.252;2024-03-02T12:18:34;100939.72;;;15.57;69.30
38786;BME280;24535;45.508;12.252;2024-03-02T12:21:01;100938.63;;;15.60;69.45
38786;BME280;24535;45.508;12.252;2024-03-02T12:23:28;100936.22;;;15.57;69.13
38786;BME280;24535;45.508;12.252;2024-03-02T12:25:53;100931.16;;;15.54;69.73
38786;BME280;24535;45.508;12.252;2024-03-02T12:28:19;100930.09;;;15.56;69.20
38786;BME280;24535;45.508;12.252;2024-03-02T12:30:45;100925.72;;;15.55;69.30
38786;BME280;24535;45.508;12.252;2024-03-02T12:33:12;100919.47;;;15.56;69.23
38786;BME280;24535;45.508;12.252;2024-03-02T12:35:38;100915.81;;;15.57;69.21
38786;BME280;24535;45.508;12.252;2024-03-02T12:38:04;100920.03;;;15.60;69.10
38786;BME280;24535;45.508;12.252;2024-03-02T12:40:30;100919.91;;;15.62;69.45
38786;BME280;24535;45.508;12.252;2024-03-02T12:42:57;100917.09;;;15.63;69.42
38786;BME280;24535;45.508;12.252;2024-03-02T12:45:22;100919.53;;;15.66;69.46
38786;BME280;24535;45.508;12.252;2024-03-02T12:47:50;100923.03;;;15.67;69.36
38786;BME280;24535;45.508;12.252;2024-03-02T12:50:20;100916.03;;;15.66;69.09
38786;BME280;24535;45.508;12.252;2024-03-02T12:52:55;100922.09;;;15.68;69.14
38786;BME280;24535;45.508;12.252;2024-03-02T12:55:22;100923.63;;;15.70;69.16
38786;BME280;24535;45.508;12.252;2024-03-02T12:57:49;100913.97;;;15.69;69.43
38786;BME280;24535;45.508;12.252;2024-03-02T13:00:18;100921.69;;;15.72;68.96
38786;BME280;24535;45.508;12.252;2024-03-02T13:02:51;100919.03;;;15.72;69.00
38786;BME280;24535;45.508;12.252;2024-03-02T13:05:17;100919.13;;;15.71;69.16
38786;BME280;24535;45.508;12.252;2024-03-02T13:07:42;100912.88;;;15.72;69.34
38786;BME280;24535;45.508;12.252;2024-03-02T13:10:10;100917.31;;;15.71;68.98
38786;BME280;24535;45.508;12.252;2024-03-02T13:12:36;100914.81;;;15.70;68.93
38786;BME280;24535;45.508;12.252;2024-03-02T13:15:15;100920.97;;;15.70;69.29
38786;BME280;24535;45.508;12.252;2024-03-02T13:17:40;100921.78;;;15.71;69.02
38786;BME280;24535;45.508;12.252;2024-03-02T13:20:06;100915.66;;;15.70;69.33
38786;BME280;24535;45.508;12.252;2024-03-02T13:22:35;100919.97;;;15.71;69.63
38786;BME280;24535;45.508;12.252;2024-03-02T13:25:01;100917.59;;;15.68;69.25
38786;BME280;24535;45.508;12.252;2024-03-02T13:27:32;100922.19;;;15.66;68.91
38786;BME280;24535;45.508;12.252;2024-03-02T13:29:58;100923.88;;;15.67;69.50